01:23
Airports
Links
Donate
Help keep this website running!
PayPal
Bitcoin
METAR
KBKF 270058Z 30009KT 10SM VCSH FEW060 BKN080 BKN110 BKN220 11/M03 A2970 RMK AO2A PK WND 27029/34 RAB43E58 SLP040 P0000 T01121034
Current Weather Conditions at KBKF
VFR 00:58:00 27-04-17
Automated station
Altimeter:29.70 hg
Temp:11.2°c 52°f
Dew point:-3.4°c 27°f
Wind:9 knots, 10.4 mph, 5 m/s, from 300°
Visibility:10.0 statute miles
22000(BKN) Broken
11000(BKN) Broken
8000(BKN) Broken
6000(FEW) A few
Past METAR reports
VFR 00:43:00 27-04-17
Automated station
Altimeter:29.70 hg
Temp:10.0°c 50°f
Dew point:-3.0°c 27°f
Wind:10 knots, 11.5 mph, 5 m/s, from 330°
Visibility:10.0 statute miles
22000(BKN) Broken
11000(BKN) Broken
8000(BKN) Broken
6000(FEW) A few
KBKF 270043Z 33010G29KT 10SM -RA FEW060 BKN080 BKN110 BKN220 10/M03 A2970 RMK AO2A SLP045
VFR 23:58:00 26-04-17
Automated station
Altimeter:29.68 hg
Temp:12.1°c 54°f
Dew point:-5.0°c 23°f
Wind:4 knots, 4.6 mph, 2 m/s, from 150°
Visibility:10.0 statute miles
22000(BKN) Broken
11000(BKN) Broken
8000(BKN) Broken
KBKF 262358Z 15004KT 10SM VCSH BKN080 BKN110 BKN220 12/M05 A2968 RMK AO2A SLP033 T01211050 10149 20109 56008
VFR 22:58:00 26-04-17
Automated station
Altimeter:29.68 hg
Temp:13.1°c 55°f
Dew point:-4.7°c 25°f
Wind:14 knots, 16.1 mph, 7 m/s, from 200°
Visibility:10.0 statute miles
22000(BKN) Broken
11000(BKN) Broken
8000(SCT) Scattered
KBKF 262258Z 20014KT 10SM SCT080 BKN110 BKN220 13/M05 A2968 RMK AO2A SLP033 T01311047
VFR 21:58:00 26-04-17
Automated station
Altimeter:29.70 hg
Temp:13.0°c 55°f
Dew point:-7.2°c 19°f
Wind:6 knots, 6.9 mph, 3 m/s, from 290°
Visibility:10.0 statute miles
22000(BKN) Broken
11000(BKN) Broken
8000(SCT) Scattered
KBKF 262158Z 29006KT 10SM VCSH SCT080 BKN110 BKN220 13/M07 A2970 RMK AO2A SLP036 T01301072
VFR 20:58:00 26-04-17
Automated station
Altimeter:29.71 hg
Temp:13.2°c 55°f
Dew point:-7.4°c 19°f
Wind:0 knots, 0 mph, 0 m/s,
Variable direction
Visibility:10.0 statute miles
22000(BKN) Broken
11000(SCT) Scattered
7000(SCT) Scattered
KBKF 262058Z 00000KT 10SM SCT070 SCT110 BKN220 13/M07 A2971 RMK AO2A SLP039 T01321074 57020
VFR 19:58:00 26-04-17
Automated station
Altimeter:29.72 hg
Temp:13.7°c 55°f
Dew point:-5.4°c 23°f
Wind:13 knots, 15 mph, 7 m/s, from 300°
Visibility:10.0 statute miles
22000(BKN) Broken
11000(SCT) Scattered
7000(SCT) Scattered
KBKF 261958Z 30013G17KT 10SM SCT070 SCT110 BKN220 14/M05 A2972 RMK AO2A SLP043 T01371054
TAF
TAF KBKF 270104Z 2701/2807 27009KT 9999 BKN100 QNH2954INS TEMPO 2701/2702 04012KT VCSH TEMPO 2705/2707 -SHRA BKN040 610406 BECMG 2713/2714 28009KT 9999 -SHRA BKN020 610208 QNH2951INS BECMG 2717/2718 32012G18KT 9999 -TSRA SCT020 BKN030CB 610307 QNH2951INS BECMG 2720/2721 32020G30KT 9999 -TSRA BKN060CB 610604 QNH2951INS BECMG 2722/2723 31020G30KT 9999 NSW BKN100 530009 QNH2954INS BECMG 2801/2802 30010G20KT 9999 BKN100 520009 QNH2962INS TX13/2721Z TN04/2712Z
Forecast at KBKF
01:00 27-04-17 to 13:00 27-04-17
Wind:9 Knots from 270°
Visibility:6.21 statute miles
10000BKN Broken
TEMPO 01:00 27-04-17 to 02:00 27-04-17
VCSH
Wind:12 Knots from 40°
TEMPO 05:00 27-04-17 to 07:00 27-04-17
-SHRA
Wind:6 Knots from 104°
4000BKN Broken
BECMG 13:00 27-04-17 to 17:00 27-04-17
-SHRA
Wind:9 Knots from 280°
Visibility:6.21 statute miles
2000BKN Broken
BECMG 17:00 27-04-17 to 20:00 27-04-17
-TSRA
Wind:12 Knots from 320°
Visibility:6.21 statute miles
2000SCT Scattered
3000BKN Broken
BECMG 20:00 27-04-17 to 22:00 27-04-17
-TSRA
Wind:20 Knots from 320°
Visibility:6.21 statute miles
6000BKN Broken
BECMG 22:00 27-04-17 to 01:00 28-04-17
NSW
Wind:20 Knots from 310°
Visibility:6.21 statute miles
10000BKN Broken
BECMG 01:00 28-04-17 to 07:00 28-04-17
NSW
Wind:10 Knots from 300°
Visibility:6.21 statute miles
10000BKN Broken